Detalii statie AFILIU TRANS MIZIL [00001982]

Toti senzorii

Date Temperatura solului [C]Precipitatii [mm]Voltaj baterie [mV]Leaf Wetness [Min]HC Air temperature [C]HC Relative humidity [%]Punctul de roua [C]
medieminmaxsumaultimatimpmedieminmaxmediemediemin
2018-08-12 11:00:00 0 7216 29.06 28.01 30.43 38.62 13.3 12.3
2018-08-12 12:00:00 0 7216 30.2 29.5 30.82 30.22 10.5 9.3
2018-08-12 13:00:00 0 7216 30.8 29.79 31.71 30.53 11.2 9.8
2018-08-12 14:00:00 0 7216 31.18 30.53 31.69 29.22 10.8 9.1
2018-08-12 15:00:00 0 7216 31.25 30.72 31.75 27.98 10.3 9.7
2018-08-12 16:00:00 0 7216 31.46 31.15 31.73 28.11 10.4 9.8
2018-08-12 17:00:00 0 7206 30.87 30.16 32.68 28.75 10.3 9.6
2018-08-12 18:00:00 0 7158 29.42 28.58 30.12 31.7 10.5 9.6
2018-08-12 19:00:00 0 6982 25.62 23.95 27.95 43.38 11.9 11.2
2018-08-12 20:00:00 0 6914 22.34 20.79 23.68 53.95 12.3 11.7
2018-08-12 21:00:00 0 6904 21.25 20.28 22.32 57.1 12.1 11.9
2018-08-12 22:00:00 0 6894 21.51 20.07 22.76 54.64 11.7 11.3
2018-08-12 23:00:00 0 6894 22.2 21.67 22.76 50.22 11.1 10.9
2018-08-13 00:00:00 0 6894 20.53 19.54 21.49 55.54 11.1 10.9
2018-08-13 01:00:00 0 6884 17.13 16.17 19.05 72.04 11.8 11.1
2018-08-13 02:00:00 0 6874 15.46 15.07 15.88 84.3 12.6 12.4
2018-08-13 03:00:00 0 6864 14.94 14.56 15.14 91.56 13.4 13
2018-08-13 04:00:00 0 6874 14.56 14.07 15.01 94.23 13.4 12.9
2018-08-13 05:00:00 0 6864 14.26 14.02 14.51 95.71 13.4 13.2
2018-08-13 06:00:00 0 6874 14.48 14.19 14.7 93.19 13.2 13
2018-08-13 07:00:00 0 6942 17.1 15 21 83.43 14 13.7
2018-08-13 08:00:00 0 6982 24.31 21.78 26.47 56.44 14.8 14.4
2018-08-13 09:00:00 0 7216 26.63 25.06 27.89 49.56 14.9 14.3
2018-08-13 10:00:00 0 7216 28.56 27.62 29.75 42.26 14.2 12.8
2018-08-13 11:00:00 0 7216 30.23 29.16 31.33 34.94 12.7 12.1
2018-08-13 12:00:00 0 7216 30.36 28.86 31.6 33.02 11.9 11
2018-08-13 13:00:00 0 7216 31.34 30.32 32.18 31.28 12 11.3
2018-08-13 14:00:00 0 7216 32.11 31.37 32.91 28.23 11.1 10.1
2018-08-13 15:00:00 0 7216 32.29 31.57 32.83 26.61 10.3 9.1
2018-08-13 16:00:00 0 7216 32.22 31.07 33.09 26.09 9.9 9.3
2018-08-13 17:00:00 0 7176 31.8 31.42 32.22 25.08 9 8.4
2018-08-13 18:00:00 0 7206 30.38 29.44 31.16 26.39 8.6 7.6
2018-08-13 19:00:00 0 7000 28.34 26.96 29.21 29.36 8.4 7.3
2018-08-13 20:00:00 0 6932 23.56 20.94 26.04 44.36 10.4 9.8
2018-08-13 21:00:00 0 6922 21.85 20.55 22.34 50.28 10.8 10.3
2018-08-13 22:00:00 0 6904 19.6 17.25 21.65 56.59 10.5 9.3
2018-08-13 23:00:00 0 6904 20.13 19.05 21.21 49.67 9 8.6
2018-08-14 00:00:00 0 6884 18.18 15.81 19.16 57.45 9.4 8.9
2018-08-14 01:00:00 0 6884 14.67 13.9 15.43 75.76 10.2 10
2018-08-14 02:00:00 0 6864 13.49 13.16 14.12 85.91 11 10.2
2018-08-14 03:00:00 0 6874 13.13 12.69 13.56 88.76 11.1 10.8
2018-08-14 04:00:00 0 6854 12.5 12.16 12.93 90.97 10.9 10.5
2018-08-14 05:00:00 0 6844 12.34 11.79 12.67 91.42 10.8 10.3
2018-08-14 06:00:00 0 6874 11.82 11.48 12.32 94.47 10.8 10.2
2018-08-14 07:00:00 0 6932 14.6 12.19 18.09 90.28 12.8 11.3
2018-08-14 08:00:00 0 6982 21.45 18.84 23.78 57.71 12.4 11.7
2018-08-14 09:00:00 0 7226 25.33 24.35 27.15 42.75 11.5 10.3